Time;durP1;ratioP1;P1;durP2;ratioP2;P2;SDS_P1;SDS_P2;PMS_P1;PMS_P2;Temp;Humidity;BMP_temperature;BMP_pressure;BME280_temperature;BME280_humidity;BME280_pressure;Samples;Min_cycle;Max_cycle;Signal;HPM_P1;HPM_P2
2023/05/13 00:01:06;;;;;;;1.40;1.10;;;;;;;9.96;73.69;99673.06;5092722;28;20198;-71
2023/05/13 00:03:33;;;;;;;1.20;1.10;;;;;;;9.97;74.07;99672.13;5092722;28;20283;-75
2023/05/13 00:06:00;;;;;;;1.47;1.10;;;;;;;10.03;74.48;99670.94;5092878;28;20214;-76
2023/05/13 00:08:26;;;;;;;2.67;1.23;;;;;;;10.09;73.83;99666.28;5092572;28;20226;-70
2023/05/13 00:10:55;;;;;;;0.90;0.90;;;;;;;10.06;73.90;99669.03;5092499;28;20198;-70
2023/05/13 00:13:21;;;;;;;1.17;1.07;;;;;;;10.01;74.67;99667.69;5092657;28;20226;-70
2023/05/13 00:15:48;;;;;;;1.67;1.30;;;;;;;10.00;75.28;99664.28;5092555;28;20240;-70
2023/05/13 00:18:15;;;;;;;2.70;1.30;;;;;;;9.99;75.75;99665.22;5092372;28;20706;-75
2023/05/13 00:20:42;;;;;;;2.47;1.47;;;;;;;9.92;75.77;99669.06;5092386;28;20208;-70
2023/05/13 00:23:10;;;;;;;1.67;1.23;;;;;;;9.86;75.99;99665.13;5092335;28;20733;-70
2023/05/13 00:25:37;;;;;;;1.00;0.90;;;;;;;9.83;76.45;99664.47;5092235;28;20214;-70
2023/05/13 00:28:05;;;;;;;0.93;0.83;;;;;;;9.77;76.25;99675.06;5092218;28;20220;-75
2023/05/13 00:30:32;;;;;;;1.10;0.80;;;;;;;9.73;76.41;99675.25;5092512;28;20210;-71
2023/05/13 00:32:58;;;;;;;1.10;1.00;;;;;;;9.72;76.73;99673.63;5092408;28;20225;-76
2023/05/13 00:35:25;;;;;;;2.00;1.10;;;;;;;9.70;75.56;99679.72;5092422;28;20226;-70
2023/05/13 00:37:52;;;;;;;1.60;1.23;;;;;;;9.59;76.36;99675.25;5092235;28;20572;-70
2023/05/13 00:40:21;;;;;;;2.80;1.30;;;;;;;9.62;76.11;99672.50;5091191;28;20202;-75
2023/05/13 00:42:49;;;;;;;1.10;1.00;;;;;;;9.64;75.91;99680.91;5091973;28;20617;-75
2023/05/13 00:45:17;;;;;;;1.63;0.90;;;;;;;9.68;75.17;99677.25;5092563;28;20673;-75
2023/05/13 00:47:44;;;;;;;1.20;1.10;;;;;;;9.60;74.94;99674.34;5091876;28;20205;-75
2023/05/13 00:50:13;;;;;;;2.70;1.63;;;;;;;9.55;75.94;99680.63;5091971;28;20217;-70
2023/05/13 00:52:41;;;;;;;2.17;1.10;;;;;;;9.66;75.74;99680.81;5091945;28;20202;-70
2023/05/13 00:55:09;;;;;;;1.60;1.23;;;;;;;9.64;76.19;99675.78;5091930;28;20237;-70
2023/05/13 00:57:38;;;;;;;1.50;1.20;;;;;;;9.66;76.78;99679.09;5091491;28;20206;-75
2023/05/13 01:00:06;;;;;;;1.90;1.40;;;;;;;9.65;76.71;99677.44;5091681;28;20229;-70
2023/05/13 01:02:41;;;;;;;1.50;1.20;;;;;;;9.58;77.15;99676.16;5091351;28;20205;-70
2023/05/13 01:05:19;;;;;;;2.03;1.20;;;;;;;9.63;77.36;99679.28;5091927;28;20209;-70
2023/05/13 01:07:53;;;;;;;2.33;1.20;;;;;;;9.47;77.88;99686.16;5091285;28;20194;-75
2023/05/13 01:10:28;;;;;;;1.40;1.13;;;;;;;9.58;78.18;99696.59;5091377;28;20198;-70
2023/05/13 01:13:00;;;;;;;1.07;0.87;;;;;;;9.64;78.15;99701.31;5091467;28;20229;-76
2023/05/13 01:15:28;;;;;;;1.13;0.83;;;;;;;9.67;77.69;99701.16;5091551;28;20295;-70
2023/05/13 01:18:05;;;;;;;1.20;1.10;;;;;;;9.62;77.79;99705.69;5091206;28;20222;-75
2023/05/13 01:20:34;;;;;;;1.17;1.07;;;;;;;9.40;79.62;99700.22;5091525;28;20197;-75
2023/05/13 01:23:05;;;;;;;1.43;1.13;;;;;;;9.48;79.73;99700.56;5091146;28;20218;-70
2023/05/13 01:25:31;;;;;;;1.37;1.10;;;;;;;9.63;78.73;99702.25;5091503;28;20201;-75
2023/05/13 01:27:59;;;;;;;1.43;1.17;;;;;;;9.69;77.79;99698.53;5091177;28;20229;-75
2023/05/13 01:30:26;;;;;;;1.90;1.17;;;;;;;9.65;77.10;99691.94;5091214;28;20198;-76
2023/05/13 01:32:55;;;;;;;1.60;1.10;;;;;;;9.63;77.74;99694.59;5091027;28;20229;-75
2023/05/13 01:35:23;;;;;;;1.27;0.90;;;;;;;9.57;75.94;99699.22;5091020;28;20690;-75
2023/05/13 01:37:51;;;;;;;1.67;1.40;;;;;;;9.47;77.21;99704.03;5091147;28;20232;-75
2023/05/13 01:40:20;;;;;;;1.30;1.00;;;;;;;9.50;78.14;99703.88;5090857;28;20212;-75
2023/05/13 01:42:47;;;;;;;1.17;1.03;;;;;;;9.53;79.03;99708.78;5090949;28;20537;-75
2023/05/13 01:45:14;;;;;;;0.90;0.87;;;;;;;9.51;78.53;99705.50;5090718;28;20205;-75
2023/05/13 01:47:41;;;;;;;0.97;0.93;;;;;;;9.53;79.09;99693.47;5090712;28;20209;-70
2023/05/13 01:50:08;;;;;;;1.50;1.00;;;;;;;9.56;80.50;99692.47;5090552;28;20666;-70
2023/05/13 01:52:35;;;;;;;0.93;0.87;;;;;;;9.43;78.84;99684.72;5090458;28;20679;-75
2023/05/13 01:55:02;;;;;;;1.20;1.10;;;;;;;9.55;79.19;99691.66;5090777;28;20206;-75
2023/05/13 01:57:30;;;;;;;1.70;1.20;;;;;;;9.48;77.19;99687.81;5090398;28;20198;-70
2023/05/13 01:59:57;;;;;;;2.53;0.93;;;;;;;9.61;75.86;99690.47;5090740;28;20217;-75
2023/05/13 02:02:24;;;;;;;1.50;1.40;;;;;;;9.68;74.63;99692.56;5090522;28;20198;-70
2023/05/13 02:04:50;;;;;;;1.20;1.10;;;;;;;9.70;74.53;99685.66;5090282;28;20221;-70
2023/05/13 02:07:17;;;;;;;0.80;0.80;;;;;;;9.75;73.86;99683.66;5090389;28;20206;-70
2023/05/13 02:09:44;;;;;;;1.43;0.90;;;;;;;9.66;73.32;99683.38;5090387;28;20233;-75
2023/05/13 02:12:11;;;;;;;1.73;1.00;;;;;;;9.73;74.09;99677.00;5090461;28;20228;-76
2023/05/13 02:14:39;;;;;;;3.03;1.30;;;;;;;9.75;75.25;99673.44;5090380;28;20275;-75
2023/05/13 02:17:06;;;;;;;1.63;1.13;;;;;;;9.77;75.20;99675.06;5090441;28;20237;-70
2023/05/13 02:19:33;;;;;;;3.10;1.67;;;;;;;9.61;75.25;99681.09;5090361;28;20358;-74
2023/05/13 02:21:59;;;;;;;1.33;1.23;;;;;;;9.65;74.83;99677.44;5090152;28;20198;-75
2023/05/13 02:24:26;;;;;;;1.77;1.10;;;;;;;9.67;74.97;99670.50;5090233;28;20225;-75
2023/05/13 02:26:53;;;;;;;1.43;1.20;;;;;;;9.77;72.64;99669.97;5090055;28;20202;-70
2023/05/13 02:29:20;;;;;;;2.60;0.93;;;;;;;9.74;73.01;99666.69;5090323;28;20253;-70
2023/05/13 02:31:49;;;;;;;3.40;1.30;;;;;;;9.71;72.63;99671.13;5090260;28;20202;-75
2023/05/13 02:34:16;;;;;;;1.17;0.87;;;;;;;9.67;73.33;99678.16;5090287;28;20709;-75
2023/05/13 02:36:42;;;;;;;1.13;0.87;;;;;;;9.70;73.02;99680.53;5089952;28;20668;-70
2023/05/13 02:39:09;;;;;;;1.40;1.20;;;;;;;9.70;71.92;99675.44;5089665;28;20511;-70
2023/05/13 02:41:36;;;;;;;3.10;1.00;;;;;;;9.67;71.88;99685.81;5089970;28;20205;-70
2023/05/13 02:44:03;;;;;;;1.27;0.97;;;;;;;9.66;71.98;99696.97;5089964;28;20214;-69
2023/05/13 02:46:30;;;;;;;1.23;1.07;;;;;;;9.67;71.58;99692.66;5089880;28;20233;-75
2023/05/13 02:48:59;;;;;;;2.63;1.10;;;;;;;9.63;71.60;99702.25;5090029;28;20599;-75
2023/05/13 02:51:26;;;;;;;1.37;0.93;;;;;;;9.47;72.23;99711.69;5090085;28;20213;-75
2023/05/13 02:53:52;;;;;;;1.13;1.03;;;;;;;9.55;73.39;99706.97;5089848;28;20608;-75
2023/05/13 02:56:19;;;;;;;3.13;1.33;;;;;;;9.77;73.85;99710.81;5089934;28;20701;-70
2023/05/13 02:58:46;;;;;;;1.23;0.83;;;;;;;9.80;74.56;99715.75;5089919;28;20218;-70
2023/05/13 03:01:13;;;;;;;1.20;1.00;;;;;;;9.82;75.12;99708.81;5090271;28;20198;-76
2023/05/13 03:03:40;;;;;;;1.77;1.20;;;;;;;9.89;74.76;99712.63;5092282;28;20723;-70
2023/05/13 03:06:08;;;;;;;1.43;1.17;;;;;;;9.90;72.86;99720.22;5093769;28;20209;-70
2023/05/13 03:08:35;;;;;;;1.10;1.00;;;;;;;9.86;72.64;99720.47;5093981;28;20218;-71
2023/05/13 03:11:02;;;;;;;0.60;0.60;;;;;;;9.82;73.92;99713.94;5093992;28;20205;-70
2023/05/13 03:13:29;;;;;;;1.20;1.10;;;;;;;9.80;74.27;99710.63;5093889;28;20224;-70
2023/05/13 03:15:56;;;;;;;0.90;0.90;;;;;;;9.81;74.20;99718.22;5093731;28;20778;-75
2023/05/13 03:18:22;;;;;;;1.10;1.00;;;;;;;9.66;75.09;99711.47;5093729;28;20233;-75
2023/05/13 03:20:49;;;;;;;1.50;1.30;;;;;;;9.47;73.58;99719.34;5093482;28;20194;-75
2023/05/13 03:23:17;;;;;;;1.53;0.90;;;;;;;9.57;73.62;99720.47;5093710;28;20217;-70
2023/05/13 03:25:44;;;;;;;1.50;1.10;;;;;;;9.69;73.49;99724.88;5093648;28;20456;-72
2023/05/13 03:28:12;;;;;;;1.63;1.30;;;;;;;9.74;73.23;99727.97;5093469;28;20214;-70
2023/05/13 03:30:38;;;;;;;1.20;0.97;;;;;;;9.67;72.83;99731.78;5093337;28;20205;-70
2023/05/13 03:33:05;;;;;;;1.10;1.00;;;;;;;9.64;73.45;99724.31;5093338;28;20229;-70
2023/05/13 03:35:32;;;;;;;0.83;0.80;;;;;;;9.69;72.92;99729.16;5093317;28;20202;-70
2023/05/13 03:37:59;;;;;;;1.90;1.30;;;;;;;9.78;74.38;99731.16;5093265;28;20748;-70
2023/05/13 03:40:27;;;;;;;1.60;1.00;;;;;;;9.54;73.94;99733.44;5093396;28;20572;-70
2023/05/13 03:42:54;;;;;;;1.13;1.00;;;;;;;9.62;75.00;99728.66;5093767;28;20244;-76
2023/05/13 03:45:20;;;;;;;1.10;0.97;;;;;;;9.74;76.40;99735.63;5093515;28;20202;-75
2023/05/13 03:47:47;;;;;;;2.33;1.20;;;;;;;9.76;76.96;99745.75;5092997;28;20594;-76
2023/05/13 03:50:14;;;;;;;1.47;1.20;;;;;;;9.89;76.15;99756.06;5093231;28;20198;-70
2023/05/13 03:52:41;;;;;;;2.00;1.17;;;;;;;9.97;75.43;99762.34;5093322;28;20201;-70
2023/05/13 03:55:08;;;;;;;1.90;1.20;;;;;;;9.89;75.70;99769.69;5093146;28;20604;-75
2023/05/13 03:57:37;;;;;;;1.97;1.40;;;;;;;9.94;75.57;99769.38;5092751;28;20240;-75
2023/05/13 04:00:04;;;;;;;1.37;1.23;;;;;;;10.21;74.71;99769.50;5093009;28;20194;-70
2023/05/13 04:02:31;;;;;;;2.70;1.20;;;;;;;10.27;74.00;99778.56;5092751;28;20396;-70
2023/05/13 04:04:57;;;;;;;1.83;1.03;;;;;;;10.15;72.96;99778.34;5092750;28;20205;-71
2023/05/13 04:07:24;;;;;;;1.90;1.10;;;;;;;10.11;71.69;99771.78;5092954;28;20202;-73
2023/05/13 04:09:51;;;;;;;1.63;1.43;;;;;;;10.25;72.15;99777.81;5092726;28;20221;-70
2023/05/13 04:12:18;;;;;;;1.17;1.07;;;;;;;10.38;71.38;99773.63;5092860;28;20209;-70
2023/05/13 04:14:46;;;;;;;1.70;1.00;;;;;;;10.38;71.46;99774.47;5092279;28;20228;-70
2023/05/13 04:17:13;;;;;;;1.40;1.20;;;;;;;10.41;71.44;99770.88;5092408;28;20237;-76
2023/05/13 04:19:39;;;;;;;2.03;1.50;;;;;;;10.50;72.92;99775.44;5092306;28;20228;-70
2023/05/13 04:22:06;;;;;;;2.67;1.40;;;;;;;10.58;73.12;99773.22;5092345;28;20212;-75
2023/05/13 04:24:33;;;;;;;2.30;1.30;;;;;;;10.70;73.09;99766.53;5092433;28;20224;-75
2023/05/13 04:27:00;;;;;;;1.17;0.97;;;;;;;10.78;71.86;99766.06;5092398;28;20208;-75
2023/05/13 04:29:26;;;;;;;2.87;1.20;;;;;;;10.76;71.40;99768.75;5092527;28;20218;-75
2023/05/13 04:31:55;;;;;;;1.10;1.00;;;;;;;10.74;69.51;99769.75;5092450;28;20638;-75
2023/05/13 04:34:21;;;;;;;1.60;0.97;;;;;;;10.80;71.30;99774.47;5092219;28;20217;-70
2023/05/13 04:36:48;;;;;;;1.53;1.10;;;;;;;10.84;71.89;99773.34;5092398;28;20740;-70
2023/05/13 04:39:15;;;;;;;1.20;1.10;;;;;;;10.82;75.31;99786.25;5092241;28;20249;-72
2023/05/13 04:41:42;;;;;;;1.10;1.00;;;;;;;10.91;77.13;99782.31;5092201;28;20625;-70
2023/05/13 04:44:09;;;;;;;1.13;1.03;;;;;;;10.79;77.01;99778.78;5092078;28;20218;-75
2023/05/13 04:46:38;;;;;;;1.30;1.20;;;;;;;10.85;75.87;99782.69;5092042;28;20198;-70
2023/05/13 04:49:06;;;;;;;2.20;1.03;;;;;;;10.85;76.91;99798.03;5091993;28;20287;-70
2023/05/13 04:51:33;;;;;;;2.37;1.20;;;;;;;10.91;76.57;99796.81;5092044;28;20206;-70
2023/05/13 04:53:59;;;;;;;1.00;0.90;;;;;;;10.96;75.58;99795.63;5092118;28;20226;-70
2023/05/13 04:56:26;;;;;;;1.20;1.10;;;;;;;11.08;77.75;99801.69;5091838;28;20233;-75
2023/05/13 04:58:53;;;;;;;1.47;1.03;;;;;;;11.10;76.96;99802.44;5091415;28;20229;-71
2023/05/13 05:01:20;;;;;;;3.13;1.20;;;;;;;11.13;76.66;99811.66;5092029;28;20198;-70
2023/05/13 05:03:46;;;;;;;1.40;1.27;;;;;;;11.14;74.47;99823.53;5091683;28;20218;-74
2023/05/13 05:06:15;;;;;;;1.17;1.07;;;;;;;11.13;74.34;99821.91;5091534;28;20194;-75
2023/05/13 05:08:42;;;;;;;1.20;0.90;;;;;;;11.12;72.74;99825.38;5091411;28;20210;-70
2023/05/13 05:11:09;;;;;;;2.97;1.17;;;;;;;10.99;72.79;99823.56;5091482;28;20245;-76
2023/05/13 05:13:36;;;;;;;1.40;1.20;;;;;;;11.00;72.96;99829.53;5091207;28;20265;-72
2023/05/13 05:16:03;;;;;;;1.73;1.40;;;;;;;10.94;76.59;99838.41;5091258;28;20205;-69
2023/05/13 05:18:29;;;;;;;1.33;1.23;;;;;;;10.59;74.09;99849.03;5091304;28;20621;-75
2023/05/13 05:20:56;;;;;;;5.67;1.27;;;;;;;10.88;74.99;99841.34;5091547;28;20588;-73
2023/05/13 05:23:24;;;;;;;1.10;1.00;;;;;;;11.16;72.24;99842.19;5091179;28;20225;-70
2023/05/13 05:25:51;;;;;;;1.40;1.30;;;;;;;11.16;74.52;99837.06;5090460;28;20201;-70
2023/05/13 05:28:18;;;;;;;0.93;0.90;;;;;;;11.27;73.85;99839.78;5091333;28;20222;-70
2023/05/13 05:30:45;;;;;;;1.30;1.20;;;;;;;11.32;74.07;99842.88;5091105;28;20212;-75
2023/05/13 05:33:12;;;;;;;1.17;1.07;;;;;;;11.35;74.53;99841.84;5091383;28;20218;-70
2023/05/13 05:35:39;;;;;;;1.90;1.37;;;;;;;11.32;74.02;99840.31;5091045;28;20206;-75
2023/05/13 05:38:07;;;;;;;1.60;1.10;;;;;;;11.32;74.66;99833.44;5091261;28;20736;-75
2023/05/13 05:40:38;;;;;;;1.20;1.10;;;;;;;11.50;72.42;99836.56;5090709;28;20824;-75
2023/05/13 05:43:06;;;;;;;1.60;1.17;;;;;;;11.55;71.41;99839.66;5090796;28;20228;-75
2023/05/13 05:45:34;;;;;;;1.20;1.10;;;;;;;11.46;70.68;99845.38;5090822;28;20275;-75
2023/05/13 05:48:01;;;;;;;1.90;1.27;;;;;;;11.54;72.52;99840.56;5090793;28;20226;-75
2023/05/13 05:50:28;;;;;;;1.33;1.10;;;;;;;11.67;74.93;99837.22;5090985;28;20190;-75
2023/05/13 05:52:55;;;;;;;1.87;1.10;;;;;;;11.73;74.98;99841.97;5090968;28;20225;-75
2023/05/13 05:55:22;;;;;;;1.60;1.23;;;;;;;11.83;78.68;99845.53;5090777;28;20579;-76
2023/05/13 05:57:51;;;;;;;0.97;0.90;;;;;;;11.79;75.33;99857.75;5090632;28;20244;-76
2023/05/13 06:00:18;;;;;;;2.30;1.20;;;;;;;11.77;82.21;99843.38;5090601;28;20205;-75
2023/05/13 06:02:45;;;;;;;2.60;1.50;;;;;;;11.64;86.48;99847.69;5090482;28;20249;-75
2023/05/13 06:05:12;;;;;;;1.40;1.17;;;;;;;11.69;82.78;99836.22;5090731;28;20236;-70
2023/05/13 06:07:39;;;;;;;1.37;1.07;;;;;;;11.79;84.59;99842.38;5090563;28;20197;-75
2023/05/13 06:10:06;;;;;;;2.30;1.50;;;;;;;11.89;83.42;99842.63;5090476;28;20700;-75
2023/05/13 06:12:33;;;;;;;1.30;1.10;;;;;;;12.02;85.10;99836.69;5090362;28;20213;-70
2023/05/13 06:15:02;;;;;;;1.77;1.20;;;;;;;11.95;83.56;99839.63;5090753;28;20194;-70
2023/05/13 06:17:28;;;;;;;1.30;1.20;;;;;;;12.06;82.41;99843.25;5090119;28;20232;-70
2023/05/13 06:19:55;;;;;;;1.40;1.20;;;;;;;12.02;82.69;99839.25;5090533;28;20190;-76
2023/05/13 06:22:22;;;;;;;1.47;1.17;;;;;;;11.97;80.18;99830.13;5090208;28;20205;-70
2023/05/13 06:24:49;;;;;;;4.00;1.40;;;;;;;11.95;80.93;99831.94;5090052;28;20225;-75
2023/05/13 06:27:15;;;;;;;4.50;1.30;;;;;;;12.08;81.85;99842.22;5089949;28;20230;-70
2023/05/13 06:29:42;;;;;;;1.63;1.37;;;;;;;12.16;80.26;99836.59;5090374;28;20218;-69
2023/05/13 06:32:10;;;;;;;1.83;1.20;;;;;;;12.17;73.53;99841.63;5090036;28;20194;-75
2023/05/13 06:34:38;;;;;;;1.30;1.00;;;;;;;12.15;76.06;99840.88;5089969;28;20600;-74
2023/05/13 06:37:06;;;;;;;2.27;1.40;;;;;;;12.24;74.76;99842.03;5089800;28;20226;-71
2023/05/13 06:39:33;;;;;;;1.53;1.00;;;;;;;12.36;77.37;99851.47;5089923;28;20219;-75
2023/05/13 06:42:00;;;;;;;1.93;1.20;;;;;;;12.33;76.30;99851.66;5090028;28;20198;-70
2023/05/13 06:44:26;;;;;;;1.70;1.20;;;;;;;12.46;79.28;99857.59;5089781;28;20400;-70
2023/05/13 06:46:53;;;;;;;1.47;1.37;;;;;;;12.63;78.06;99853.09;5089894;28;20221;-70
2023/05/13 06:49:23;;;;;;;2.03;1.10;;;;;;;12.57;77.76;99858.63;5089886;28;20212;-70
2023/05/13 06:51:50;;;;;;;1.57;1.20;;;;;;;12.70;77.08;99864.56;5090357;28;20203;-70
2023/05/13 06:54:16;;;;;;;1.23;0.90;;;;;;;12.80;77.41;99875.00;5089691;28;20226;-71
2023/05/13 06:56:43;;;;;;;1.43;1.20;;;;;;;12.82;77.54;99876.53;5089752;28;20202;-77
2023/05/13 06:59:10;;;;;;;1.33;1.23;;;;;;;12.95;77.98;99873.16;5089549;28;20223;-71
2023/05/13 07:01:37;;;;;;;1.30;1.17;;;;;;;13.08;74.96;99873.91;5089681;28;20257;-76
2023/05/13 07:04:04;;;;;;;1.83;1.30;;;;;;;13.08;71.18;99886.75;5089542;28;20612;-75
2023/05/13 07:06:33;;;;;;;2.17;1.43;;;;;;;12.84;71.20;99882.38;5089623;28;20204;-70
2023/05/13 07:09:00;;;;;;;1.40;1.20;;;;;;;13.21;75.17;99884.97;5089568;28;20224;-75
2023/05/13 07:11:27;;;;;;;1.40;1.30;;;;;;;13.53;73.12;99884.47;5089516;28;20208;-70
2023/05/13 07:13:54;;;;;;;1.63;1.03;;;;;;;13.69;70.80;99892.69;5089964;28;20605;-75
2023/05/13 07:16:21;;;;;;;5.57;1.20;;;;;;;14.02;70.44;99891.16;5089702;28;20204;-76
2023/05/13 07:18:48;;;;;;;1.10;1.00;;;;;;;14.04;69.33;99890.13;5089449;28;20232;-76
2023/05/13 07:21:15;;;;;;;1.30;1.20;;;;;;;14.18;71.42;99883.97;5089564;28;20205;-75
2023/05/13 07:23:43;;;;;;;3.00;1.13;;;;;;;14.13;65.17;99877.50;5089792;28;20233;-69
2023/05/13 07:26:10;;;;;;;1.10;1.00;;;;;;;14.26;62.48;99868.78;5089399;28;20201;-75
2023/05/13 07:28:37;;;;;;;1.17;0.90;;;;;;;14.37;62.03;99864.56;5089457;28;20225;-70
2023/05/13 07:31:05;;;;;;;1.93;1.03;;;;;;;14.42;64.33;99859.91;5089381;28;20205;-75
2023/05/13 07:33:31;;;;;;;1.40;1.20;;;;;;;14.51;64.37;99856.63;5089388;28;20218;-76
2023/05/13 07:35:58;;;;;;;1.70;1.27;;;;;;;14.68;65.43;99857.94;5089538;28;20198;-76
2023/05/13 07:38:25;;;;;;;1.43;1.23;;;;;;;14.85;61.40;99872.09;5089260;28;20625;-76
2023/05/13 07:40:53;;;;;;;1.47;1.20;;;;;;;14.59;63.38;99874.91;5089504;28;20194;-76
2023/05/13 07:43:22;;;;;;;1.57;1.30;;;;;;;14.63;64.91;99881.47;5089226;28;20222;-76
2023/05/13 07:45:49;;;;;;;1.40;1.10;;;;;;;14.71;65.45;99876.53;5089240;28;20286;-70
2023/05/13 07:48:17;;;;;;;1.30;1.20;;;;;;;14.77;65.37;99871.84;5089582;28;20226;-71
2023/05/13 07:50:44;;;;;;;1.57;1.17;;;;;;;14.93;65.29;99878.28;5093046;28;20202;-76
2023/05/13 07:53:11;;;;;;;1.10;1.00;;;;;;;15.00;63.04;99881.19;5092820;28;20222;-70
2023/05/13 07:55:38;;;;;;;1.60;1.00;;;;;;;14.98;59.10;99884.81;5092847;28;20205;-70
2023/05/13 07:58:06;;;;;;;1.00;1.00;;;;;;;15.30;59.58;99884.88;5092806;28;20237;-75
2023/05/13 08:00:33;;;;;;;1.27;1.07;;;;;;;15.55;57.57;99889.72;5092580;28;20219;-76
2023/05/13 08:03:00;;;;;;;1.37;1.10;;;;;;;15.70;54.56;99905.72;5093183;28;20224;-75
2023/05/13 08:05:27;;;;;;;1.73;1.30;;;;;;;15.97;56.02;99896.69;5092733;28;20700;-70
2023/05/13 08:07:53;;;;;;;1.53;1.03;;;;;;;16.23;54.18;99894.56;5092822;28;20225;-75
2023/05/13 08:10:20;;;;;;;2.17;1.20;;;;;;;16.43;53.10;99891.13;5093122;28;20198;-70
2023/05/13 08:12:52;;;;;;;1.30;1.20;;;;;;;16.38;53.47;99908.78;5092506;28;20199;-75
2023/05/13 08:15:20;;;;;;;1.70;1.30;;;;;;;16.46;53.86;99900.38;5092940;28;20742;-70
2023/05/13 08:17:47;;;;;;;2.00;1.20;;;;;;;16.91;55.28;99911.19;5092342;28;20229;-70
2023/05/13 08:20:15;;;;;;;1.73;1.20;;;;;;;16.84;50.57;99904.94;5092666;28;20292;-70
2023/05/13 08:22:42;;;;;;;2.00;1.13;;;;;;;17.25;57.23;99903.13;5092488;28;20253;-70
2023/05/13 08:25:11;;;;;;;1.33;1.20;;;;;;;17.76;54.05;99902.06;5092510;28;20220;-70
2023/05/13 08:27:37;;;;;;;1.37;1.10;;;;;;;18.28;49.34;99907.75;5092088;28;20240;-76
2023/05/13 08:30:05;;;;;;;1.43;1.17;;;;;;;17.94;48.67;99899.63;5092203;28;20201;-70
2023/05/13 08:32:33;;;;;;;1.87;1.27;;;;;;;18.11;50.64;99908.47;5092081;28;20859;-76
2023/05/13 08:35:01;;;;;;;1.30;1.10;;;;;;;18.69;49.71;99900.50;5092521;28;20611;-70
2023/05/13 08:37:27;;;;;;;1.33;1.13;;;;;;;19.19;51.70;99892.34;5095052;28;20242;-69
2023/05/13 08:39:56;;;;;;;2.00;1.43;;;;;;;19.38;47.05;99896.59;5097241;28;20212;-70
2023/05/13 08:42:24;;;;;;;3.90;1.90;;;;;;;19.77;42.73;99896.31;5097142;28;20199;-70
2023/05/13 08:44:52;;;;;;;2.03;1.10;;;;;;;19.60;43.21;99894.53;5092043;28;20712;-77
2023/05/13 08:47:31;;;;;;;1.33;1.00;;;;;;;19.31;45.10;99894.75;5091933;28;20195;-75
2023/05/13 08:50:00;;;;;;;1.43;1.03;;;;;;;19.10;45.26;99897.59;5092331;28;20199;-70
2023/05/13 08:52:27;;;;;;;2.10;1.40;;;;;;;19.48;44.73;99893.94;5091890;28;20208;-76
2023/05/13 08:54:55;;;;;;;2.77;1.23;;;;;;;19.54;42.46;99885.56;5091897;28;20231;-70
2023/05/13 08:57:22;;;;;;;3.73;2.23;;;;;;;19.64;42.51;99888.91;5092099;28;20198;-70
2023/05/13 08:59:50;;;;;;;2.90;1.63;;;;;;;20.06;40.62;99893.44;5091132;28;20615;-76
2023/05/13 09:02:17;;;;;;;1.53;1.00;;;;;;;20.33;42.37;99887.31;5091551;28;20199;-70
2023/05/13 09:04:47;;;;;;;1.77;1.30;;;;;;;20.51;42.77;99894.22;5091416;28;20239;-75
2023/05/13 09:07:16;;;;;;;1.13;1.00;;;;;;;20.39;42.50;99893.66;5091948;28;20187;-75
2023/05/13 09:09:43;;;;;;;2.40;1.83;;;;;;;20.14;42.82;99890.09;5091652;28;20230;-70
2023/05/13 09:12:09;;;;;;;1.67;1.30;;;;;;;20.01;43.67;99887.91;5091695;28;20219;-75
2023/05/13 09:14:37;;;;;;;4.07;2.13;;;;;;;19.92;41.89;99888.81;5091318;28;20225;-75
2023/05/13 09:17:05;;;;;;;2.10;1.40;;;;;;;20.13;40.62;99878.91;5091625;28;20221;-70
2023/05/13 09:19:31;;;;;;;3.87;1.57;;;;;;;20.20;42.40;99881.69;5091485;28;20232;-71
2023/05/13 09:21:58;;;;;;;7.00;2.60;;;;;;;20.44;41.01;99878.41;5091620;28;20205;-76
2023/05/13 09:24:26;;;;;;;0.80;0.80;;;;;;;20.49;40.81;99890.94;5091522;28;20224;-70
2023/05/13 09:26:55;;;;;;;1.60;1.20;;;;;;;20.44;43.86;99888.78;5091361;28;20218;-71
2023/05/13 09:29:23;;;;;;;1.10;1.00;;;;;;;19.97;43.57;99888.38;5090996;28;20220;-71
2023/05/13 09:31:51;;;;;;;1.63;1.53;;;;;;;20.12;44.12;99879.03;5090816;28;20212;-75
2023/05/13 09:34:26;;;;;;;1.53;1.17;;;;;;;20.43;44.66;99884.59;5090762;28;20236;-76
2023/05/13 09:37:01;;;;;;;1.20;1.10;;;;;;;20.35;43.72;99884.53;5091049;28;20365;-75
2023/05/13 09:39:31;;;;;;;1.77;1.27;;;;;;;20.62;44.24;99880.94;5090636;28;20636;-75
2023/05/13 09:41:58;;;;;;;1.50;1.20;;;;;;;20.87;42.88;99875.84;5091153;28;20670;-76
2023/05/13 09:44:25;;;;;;;2.07;1.13;;;;;;;21.22;43.54;99872.19;5091116;28;20232;-76
2023/05/13 09:46:53;;;;;;;2.27;1.33;;;;;;;21.29;42.80;99885.38;5090972;28;20200;-79
2023/05/13 09:49:23;;;;;;;1.30;1.20;;;;;;;21.59;40.75;99882.19;5090949;28;20660;-74
2023/05/13 09:51:50;;;;;;;1.10;1.00;;;;;;;21.54;41.58;99881.84;5090742;28;20237;-75
2023/05/13 09:54:16;;;;;;;1.50;1.40;;;;;;;21.28;42.94;99881.97;5090752;28;20218;-71
2023/05/13 09:56:45;;;;;;;2.00;1.30;;;;;;;21.53;43.22;99879.44;5090755;28;20201;-71
2023/05/13 09:59:11;;;;;;;1.43;1.33;;;;;;;21.97;40.13;99886.88;5090557;28;20240;-71
2023/05/13 10:01:40;;;;;;;1.45;1.23;;;;;;;22.45;40.06;99887.78;5090583;28;20202;-71
2023/05/13 10:04:07;;;;;;;1.98;1.25;;;;;;;21.76;38.66;99885.59;5090657;28;20704;-75
2023/05/13 10:06:35;;;;;;;1.05;0.98;;;;;;;22.18;38.83;99874.16;5090380;28;20204;-75
2023/05/13 10:09:03;;;;;;;1.55;1.33;;;;;;;21.75;38.43;99873.53;5090932;28;20229;-75
2023/05/13 10:11:33;;;;;;;1.33;1.10;;;;;;;21.78;39.26;99883.63;5090073;28;20666;-76
2023/05/13 10:14:02;;;;;;;2.35;1.50;;;;;;;21.99;39.28;99879.69;5090788;28;20290;-70
2023/05/13 10:16:30;;;;;;;2.13;1.40;;;;;;;21.63;37.33;99874.84;5090126;28;20237;-70
2023/05/13 10:18:57;;;;;;;2.58;1.17;;;;;;;21.85;40.62;99874.19;5090444;28;20365;-70
2023/05/13 10:21:26;;;;;;;2.08;1.50;;;;;;;22.29;39.90;99871.22;5090021;28;20236;-76
2023/05/13 10:23:53;;;;;;;1.38;1.10;;;;;;;22.62;39.82;99881.50;5090547;28;20232;-70
2023/05/13 10:29:45;;;;;;;1.30;1.20;;;;;;;22.02;38.05;99875.00;5090349;28;20596;-70
2023/05/13 10:32:13;;;;;;;2.55;1.60;;;;;;;22.65;40.71;99878.56;5090437;28;20259;-76
2023/05/13 10:34:43;;;;;;;1.73;1.30;;;;;;;23.03;39.54;99868.31;5090214;28;20225;-76
2023/05/13 10:37:37;;;;;;;2.20;1.38;;;;;;;23.19;38.81;99873.44;5090125;28;20193;-71
2023/05/13 10:40:20;;;;;;;3.45;1.48;;;;;;;22.83;39.70;99884.38;5089943;28;20618;-76
2023/05/13 10:42:55;;;;;;;2.03;1.30;;;;;;;23.13;37.87;99879.34;5089968;28;20205;-71
2023/05/13 10:45:26;;;;;;;1.10;1.00;;;;;;;23.31;38.73;99871.22;5090082;28;20193;-76
2023/05/13 10:47:55;;;;;;;1.63;1.10;;;;;;;23.21;37.48;99881.91;5090227;28;20218;-70
2023/05/13 10:50:26;;;;;;;1.20;1.10;;;;;;;23.07;35.82;99867.00;5089900;28;20194;-73
2023/05/13 10:52:57;;;;;;;1.30;1.17;;;;;;;22.97;37.15;99871.59;5089867;28;20214;-70
2023/05/13 10:55:23;;;;;;;2.08;1.33;;;;;;;23.11;39.50;99875.28;5089795;28;20293;-70
2023/05/13 10:58:10;;;;;;;1.45;1.30;;;;;;;22.74;38.59;99874.94;5089765;28;20222;-70
2023/05/13 11:00:41;;;;;;;1.83;1.30;;;;;;;22.97;38.38;99872.41;5089573;28;20260;-76
2023/05/13 11:03:12;;;;;;;2.20;1.30;;;;;;;23.08;35.46;99876.44;5089688;28;20210;-71
2023/05/13 11:05:41;;;;;;;1.58;1.27;;;;;;;23.19;37.59;99868.22;5089611;28;20690;-73
2023/05/13 11:08:08;;;;;;;1.27;1.10;;;;;;;23.07;36.81;99868.75;5089532;28;20214;-71
2023/05/13 11:10:35;;;;;;;1.17;1.00;;;;;;;23.16;37.63;99868.56;5089662;28;20225;-77
2023/05/13 11:13:23;;;;;;;1.20;1.10;;;;;;;22.74;37.59;99858.50;5089730;28;20230;-73
2023/05/13 11:15:53;;;;;;;1.38;1.23;;;;;;;23.03;38.18;99868.31;5084652;28;20208;-71
2023/05/13 11:18:20;;;;;;;1.20;1.10;;;;;;;23.04;37.07;99864.72;5089303;28;20248;-76
2023/05/13 11:20:52;;;;;;;1.60;1.20;;;;;;;22.94;36.32;99858.88;5089489;28;20194;-71
2023/05/13 11:23:20;;;;;;;1.58;1.25;;;;;;;22.84;36.78;99869.53;5089871;28;20233;-71
2023/05/13 11:26:07;;;;;;;2.17;1.10;;;;;;;23.22;37.33;99867.88;5093573;28;20198;-71
2023/05/13 11:28:55;;;;;;;1.30;1.20;;;;;;;23.02;36.38;99872.72;5093489;28;20230;-76
2023/05/13 11:31:24;;;;;;;1.40;1.10;;;;;;;22.91;34.43;99875.69;5093346;28;20198;-72
2023/05/13 11:34:10;;;;;;;1.30;0.95;;;;;;;23.03;33.54;99874.31;5093453;28;20226;-71
2023/05/13 11:36:38;;;;;;;1.30;1.20;;;;;;;23.01;36.03;99870.28;5093328;28;20213;-77
2023/05/13 11:39:06;;;;;;;1.10;1.00;;;;;;;23.31;35.60;99875.63;5093298;28;20314;-77
2023/05/13 11:41:34;;;;;;;1.30;1.17;;;;;;;23.46;35.67;99874.69;5093098;28;20198;-71
2023/05/13 11:44:02;;;;;;;1.35;1.08;;;;;;;23.67;35.32;99871.41;5093496;28;20597;-71